Time;durP1;ratioP1;P1;durP2;ratioP2;P2;SDS_P1;SDS_P2;PMS_P1;PMS_P2;Temp;Humidity;BMP_temperature;BMP_pressure;BME280_temperature;BME280_humidity;BME280_pressure;Samples;Min_cycle;Max_cycle;Signal;HPM_P1;HPM_P2
2021/05/10 00:01:34;;;;;;;;;;;;;;;10.42;61.22;102353.22;1869567;76;20491;-75
2021/05/10 00:04:02;;;;;;;;;;;;;;;10.35;61.34;102347.41;1869618;76;20487;-74
2021/05/10 00:06:30;;;;;;;;;;;;;;;10.32;61.32;102355.76;1869683;76;20733;-74
2021/05/10 00:08:58;;;;;;;;;;;;;;;10.29;61.23;102354.58;1869680;76;20137;-74
2021/05/10 00:11:27;;;;;;;;;;;;;;;10.24;61.49;102356.52;1869341;76;20240;-74
2021/05/10 00:13:55;;;;;;;;;;;;;;;10.22;61.92;102362.19;1869190;76;20476;-74
2021/05/10 00:16:23;;;;;;;;;;;;;;;10.18;62.23;102366.65;1869518;76;20121;-74
2021/05/10 00:18:51;;;;;;;;;;;;;;;10.12;62.39;102356.47;1869572;76;20193;-74
2021/05/10 00:21:19;;;;;;;;;;;;;;;10.06;62.76;102347.63;1869687;76;20244;-74
2021/05/10 00:23:48;;;;;;;;;;;;;;;10.00;62.74;102351.30;1869562;76;20598;-74
2021/05/10 00:26:17;;;;;;;;;;;;;;;9.96;62.88;102352.75;1869561;76;20110;-74
2021/05/10 00:28:45;;;;;;;;;;;;;;;9.94;62.71;102351.97;1869625;76;20126;-74
2021/05/10 00:31:14;;;;;;;;;;;;;;;9.90;62.77;102346.49;1869389;76;20476;-75
2021/05/10 00:33:42;;;;;;;;;;;;;;;9.90;63.06;102347.34;1869684;76;20235;-74
2021/05/10 00:36:10;;;;;;;;;;;;;;;9.87;63.44;102349.20;1869396;76;22208;-74
2021/05/10 00:38:38;;;;;;;;;;;;;;;9.85;63.48;102351.86;1870416;76;20181;-74
2021/05/10 00:41:06;;;;;;;;;;;;;;;9.86;63.75;102348.34;1871578;76;20204;-74
2021/05/10 00:43:34;;;;;;;;;;;;;;;9.85;63.34;102335.01;1869836;76;20495;-74
2021/05/10 00:46:07;;;;;;;;;;;;;;;9.86;63.54;102341.86;1708562;84;20255;-74
2021/05/10 00:48:35;;;;;;;;;;;;;;;9.86;63.97;102340.56;1708740;84;22148;-74
2021/05/10 00:51:04;;;;;;;;;;;;;;;9.83;63.36;102335.49;1708750;84;20338;-74
2021/05/10 00:53:43;;;;;;;;;;;;;;;9.80;63.18;102336.91;1708808;84;20256;-74
2021/05/10 00:56:32;;;;;;;;;;;;;;;9.77;63.73;102342.20;1708400;84;20626;-74
2021/05/10 00:59:01;;;;;;;;;;;;;;;9.72;64.27;102340.68;1708922;84;20248;-74
2021/05/10 01:01:40;;;;;;;;;;;;;;;9.69;64.47;102338.20;1708787;84;21207;-75
2021/05/10 01:04:15;;;;;;;;;;;;;;;9.64;65.02;102333.61;1791868;76;20504;-74
2021/05/10 01:06:43;;;;;;;;;;;;;;;9.52;65.22;102333.16;1869548;76;20173;-74
2021/05/10 01:09:11;;;;;;;;;;;;;;;9.46;65.76;102341.16;1869610;76;20367;-74
2021/05/10 01:11:39;;;;;;;;;;;;;;;9.41;66.29;102333.97;1870292;76;20338;-74
2021/05/10 01:14:06;;;;;;;;;;;;;;;9.39;66.23;102336.22;1869442;76;21335;-75
2021/05/10 01:16:34;;;;;;;;;;;;;;;9.36;66.66;102328.11;1869772;76;20221;-74
2021/05/10 01:19:03;;;;;;;;;;;;;;;9.34;66.98;102327.77;1869725;76;20499;-75
2021/05/10 01:21:31;;;;;;;;;;;;;;;9.31;66.88;102324.84;1841050;76;21075;-75
2021/05/10 01:23:59;;;;;;;;;;;;;;;9.30;67.14;102331.36;1869564;76;20491;-75
2021/05/10 01:26:27;;;;;;;;;;;;;;;9.26;66.93;102324.14;1840939;76;21181;-75
2021/05/10 01:28:55;;;;;;;;;;;;;;;9.23;66.96;102325.98;1869346;76;20126;-75
2021/05/10 01:31:23;;;;;;;;;;;;;;;9.19;67.32;102325.72;1869457;76;20220;-74
2021/05/10 01:33:51;;;;;;;;;;;;;;;9.16;67.95;102321.45;1869470;76;20130;-74
2021/05/10 01:36:19;;;;;;;;;;;;;;;9.13;68.43;102321.56;1869457;76;20491;-75
2021/05/10 01:38:46;;;;;;;;;;;;;;;9.11;68.47;102321.22;1869415;76;21122;-75
2021/05/10 01:41:14;;;;;;;;;;;;;;;9.06;68.21;102317.95;1869702;76;20881;-75
2021/05/10 01:43:42;;;;;;;;;;;;;;;9.01;68.54;102315.06;1869425;76;20534;-75
2021/05/10 01:46:10;;;;;;;;;;;;;;;8.95;69.16;102315.27;1869543;76;20200;-75
2021/05/10 01:48:38;;;;;;;;;;;;;;;8.90;70.10;102318.44;1869371;76;20126;-75
2021/05/10 01:51:06;;;;;;;;;;;;;;;8.87;70.41;102316.42;1869513;76;21184;-75
2021/05/10 01:53:34;;;;;;;;;;;;;;;8.85;70.38;102315.16;1869422;76;20551;-74
2021/05/10 01:56:02;;;;;;;;;;;;;;;8.82;70.19;102319.15;1869230;76;20304;-74
2021/05/10 01:58:29;;;;;;;;;;;;;;;8.77;70.71;102313.28;1869198;76;20161;-75
2021/05/10 02:00:57;;;;;;;;;;;;;;;8.71;70.96;102334.16;1869613;76;20126;-75
2021/05/10 02:03:25;;;;;;;;;;;;;;;8.64;71.31;102329.25;1869529;76;21255;-75
2021/05/10 02:05:53;;;;;;;;;;;;;;;8.59;71.42;102341.02;1869297;76;20106;-74
2021/05/10 02:08:20;;;;;;;;;;;;;;;8.54;71.54;102337.74;1869624;76;20170;-74
2021/05/10 02:10:50;;;;;;;;;;;;;;;8.47;71.62;102342.26;1869325;76;20158;-75
2021/05/10 02:13:20;;;;;;;;;;;;;;;8.37;72.19;102340.84;1869461;75;20161;-75
2021/05/10 02:15:49;;;;;;;;;;;;;;;8.33;72.84;102354.75;1869390;76;21187;-74
2021/05/10 02:18:18;;;;;;;;;;;;;;;8.33;72.93;102346.98;1869289;76;20193;-74
2021/05/10 02:20:46;;;;;;;;;;;;;;;8.28;72.55;102348.87;1869532;76;20146;-75
2021/05/10 02:23:16;;;;;;;;;;;;;;;8.25;73.12;102346.79;1869338;76;20189;-75
2021/05/10 02:25:47;;;;;;;;;;;;;;;8.23;73.46;102342.94;1869506;76;20117;-75
2021/05/10 02:28:16;;;;;;;;;;;;;;;8.21;73.21;102349.05;1869489;76;22256;-74
2021/05/10 02:30:44;;;;;;;;;;;;;;;8.15;73.23;102349.23;1869360;76;20205;-75
2021/05/10 02:33:14;;;;;;;;;;;;;;;8.11;73.76;102345.04;1869323;76;20472;-76
2021/05/10 02:35:42;;;;;;;;;;;;;;;8.07;73.53;102346.89;1869376;76;20130;-74
2021/05/10 02:38:10;;;;;;;;;;;;;;;8.00;73.52;102347.95;1869279;76;20291;-74
2021/05/10 02:40:39;;;;;;;;;;;;;;;7.95;73.70;102350.66;1869403;76;22156;-74
2021/05/10 02:43:06;;;;;;;;;;;;;;;7.89;73.94;102356.44;1868994;76;20153;-75
2021/05/10 02:45:34;;;;;;;;;;;;;;;7.89;74.12;102359.88;1869099;76;20122;-75
2021/05/10 02:48:02;;;;;;;;;;;;;;;7.88;73.95;102356.06;1869239;76;20225;-75
2021/05/10 02:50:30;;;;;;;;;;;;;;;7.88;74.23;102356.88;1869643;76;20201;-75
2021/05/10 02:52:58;;;;;;;;;;;;;;;7.91;74.30;102359.37;1869355;76;20523;-75
2021/05/10 02:55:25;;;;;;;;;;;;;;;7.90;74.30;102362.88;1869266;76;20161;-75
2021/05/10 02:57:54;;;;;;;;;;;;;;;7.88;74.56;102362.52;1869390;76;20221;-75
2021/05/10 03:00:25;;;;;;;;;;;;;;;7.88;74.83;102369.80;1869173;76;20217;-75
2021/05/10 03:02:55;;;;;;;;;;;;;;;7.90;74.96;102368.05;1869597;76;20484;-75
2021/05/10 03:05:27;;;;;;;;;;;;;;;7.95;75.28;102365.31;1869275;76;21119;-75
2021/05/10 03:07:54;;;;;;;;;;;;;;;7.99;75.48;102374.69;1869320;76;20137;-75
2021/05/10 03:10:23;;;;;;;;;;;;;;;8.02;75.54;102374.59;1869262;76;20287;-75
2021/05/10 03:12:53;;;;;;;;;;;;;;;8.04;75.62;102374.09;1869304;76;20122;-75
2021/05/10 03:15:22;;;;;;;;;;;;;;;8.05;75.73;102364.17;1860160;76;20222;-75
2021/05/10 03:17:51;;;;;;;;;;;;;;;8.07;75.45;102367.58;1856513;77;21612;-75
2021/05/10 03:20:23;;;;;;;;;;;;;;;8.08;75.58;102373.13;1856356;77;20230;-75
2021/05/10 03:22:52;;;;;;;;;;;;;;;8.09;75.64;102372.69;1856281;77;20284;-75
2021/05/10 03:25:21;;;;;;;;;;;;;;;8.07;75.83;102368.87;1856204;77;20372;-75
2021/05/10 03:27:50;;;;;;;;;;;;;;;8.10;76.03;102371.37;1856495;77;20222;-75
2021/05/10 03:30:23;;;;;;;;;;;;;;;8.15;75.79;102375.09;1856267;77;21219;-75
2021/05/10 03:32:51;;;;;;;;;;;;;;;8.17;75.50;102379.33;1856371;77;20209;-75
2021/05/10 03:35:19;;;;;;;;;;;;;;;8.20;75.69;102387.47;1856487;77;20158;-75
2021/05/10 03:37:47;;;;;;;;;;;;;;;8.24;76.08;102391.64;1856438;77;20292;-75
2021/05/10 03:40:17;;;;;;;;;;;;;;;8.27;76.05;102387.23;1856259;77;20225;-75
2021/05/10 03:42:46;;;;;;;;;;;;;;;8.32;76.00;102387.14;1856504;77;21188;-75
2021/05/10 03:45:15;;;;;;;;;;;;;;;8.36;76.21;102386.98;1856628;77;20134;-75
2021/05/10 03:47:43;;;;;;;;;;;;;;;8.41;76.23;102389.45;1856723;77;20210;-75
2021/05/10 03:50:18;;;;;;;;;;;;;;;8.46;76.08;102394.88;1856467;77;20638;-75
2021/05/10 03:52:47;;;;;;;;;;;;;;;8.54;76.13;102401.58;1856632;77;20126;-75
2021/05/10 03:55:17;;;;;;;;;;;;;;;8.59;76.08;102406.16;1856498;77;21027;-75
2021/05/10 03:57:44;;;;;;;;;;;;;;;8.64;76.32;102408.17;1856653;77;20138;-75
2021/05/10 04:00:14;;;;;;;;;;;;;;;8.69;76.29;102404.55;1856465;77;20143;-75
2021/05/10 04:02:43;;;;;;;;;;;;;;;8.73;76.27;102401.42;1856512;77;20189;-75
2021/05/10 04:07:47;;;;;;;;;;;;;;;8.86;76.81;102405.33;1856447;77;21184;-75
2021/05/10 04:15:45;;;;;;;;;;;;;;;9.14;74.91;102408.73;1856412;76;20217;-75
2021/05/10 04:18:13;;;;;;;;;;;;;;;9.22;74.50;102404.14;1856669;77;20296;-75
2021/05/10 04:20:40;;;;;;;;;;;;;;;9.31;74.46;102402.56;1856403;77;21196;-75
2021/05/10 04:23:08;;;;;;;;;;;;;;;9.40;74.44;102406.59;1856296;77;20226;-75
2021/05/10 04:25:36;;;;;;;;;;;;;;;9.47;74.11;102401.61;1856336;77;20229;-75
2021/05/10 04:28:04;;;;;;;;;;;;;;;9.56;74.00;102406.03;1856584;77;20508;-75
2021/05/10 04:30:32;;;;;;;;;;;;;;;9.65;73.64;102405.30;1856559;77;20130;-75
2021/05/10 04:33:00;;;;;;;;;;;;;;;9.74;73.10;102407.13;1856660;77;21122;-75
2021/05/10 04:35:28;;;;;;;;;;;;;;;9.82;72.67;102403.83;1856411;77;20127;-75
2021/05/10 04:37:56;;;;;;;;;;;;;;;9.92;72.00;102409.54;1856507;77;20130;-76
2021/05/10 04:40:24;;;;;;;;;;;;;;;10.00;70.97;102413.55;1856562;77;20575;-75
2021/05/10 04:42:52;;;;;;;;;;;;;;;10.09;69.67;102413.20;1856516;77;20210;-75
2021/05/10 04:45:19;;;;;;;;;;;;;;;10.19;68.87;102408.56;1856386;77;21177;-75
2021/05/10 04:47:47;;;;;;;;;;;;;;;10.30;68.37;102409.47;1856303;77;20126;-74
2021/05/10 04:50:15;;;;;;;;;;;;;;;10.39;67.95;102407.39;1856459;77;20248;-75
2021/05/10 04:52:44;;;;;;;;;;;;;;;10.49;67.45;102415.22;1856555;77;20107;-75
2021/05/10 04:55:12;;;;;;;;;;;;;;;10.57;67.04;102411.87;1856466;77;20273;-75
2021/05/10 04:57:40;;;;;;;;;;;;;;;10.65;66.87;102407.70;1856430;77;21349;-75
2021/05/10 05:00:10;;;;;;;;;;;;;;;10.74;66.65;102404.73;1856559;77;20465;-76
2021/05/10 05:02:38;;;;;;;;;;;;;;;10.82;66.24;102403.12;1856421;77;20217;-74
2021/05/10 05:05:06;;;;;;;;;;;;;;;10.89;65.86;102407.17;1856382;77;20225;-76
2021/05/10 05:07:34;;;;;;;;;;;;;;;10.98;65.36;102408.09;1856525;77;20107;-75
2021/05/10 05:10:03;;;;;;;;;;;;;;;11.05;64.46;102414.75;1856397;77;22111;-75
2021/05/10 05:12:30;;;;;;;;;;;;;;;11.13;63.91;102420.05;1856625;77;20583;-75
2021/05/10 05:14:59;;;;;;;;;;;;;;;11.21;63.62;102426.66;1856495;76;20496;-74
2021/05/10 05:17:27;;;;;;;;;;;;;;;11.27;63.05;102427.27;1856470;77;20174;-75
2021/05/10 05:19:55;;;;;;;;;;;;;;;11.36;62.30;102433.86;1856326;77;20512;-75
2021/05/10 05:22:23;;;;;;;;;;;;;;;11.42;61.84;102431.01;1856494;77;21123;-75
2021/05/10 05:24:56;;;;;;;;;;;;;;;11.49;61.77;102432.42;1856681;77;20162;-75
2021/05/10 05:27:21;;;;;;;;;;;;;;;11.55;61.67;102436.09;1856697;77;20496;-75
2021/05/10 05:29:49;;;;;;;;;;;;;;;11.60;61.69;102438.03;1856625;77;20131;-75
2021/05/10 05:32:17;;;;;;;;;;;;;;;11.65;61.54;102434.77;1856455;77;20210;-76
2021/05/10 05:34:44;;;;;;;;;;;;;;;11.73;61.40;102436.64;1856652;77;21176;-75
2021/05/10 05:37:12;;;;;;;;;;;;;;;11.81;60.96;102437.59;1856401;77;20155;-75
2021/05/10 05:39:40;;;;;;;;;;;;;;;11.88;60.80;102441.17;1856532;77;20193;-76
2021/05/10 05:42:08;;;;;;;;;;;;;;;11.93;60.87;102436.64;1856308;77;20225;-75
2021/05/10 05:44:37;;;;;;;;;;;;;;;12.00;61.19;102441.09;1856581;77;20240;-75
2021/05/10 05:47:05;;;;;;;;;;;;;;;12.08;61.04;102443.77;1856461;77;22104;-74
2021/05/10 05:49:34;;;;;;;;;;;;;;;12.15;60.95;102445.64;1856541;77;20142;-74
2021/05/10 05:52:05;;;;;;;;;;;;;;;12.22;60.51;102448.82;1856595;77;20566;-75
2021/05/10 05:54:33;;;;;;;;;;;;;;;12.28;60.09;102452.00;1856547;77;20138;-74
2021/05/10 05:57:01;;;;;;;;;;;;;;;12.34;59.68;102450.87;1856585;77;20548;-75
2021/05/10 05:59:30;;;;;;;;;;;;;;;12.41;59.05;102445.78;1856400;77;21179;-75
2021/05/10 06:01:57;;;;;;;;;;;;;;;12.50;58.45;102441.45;1856332;77;20127;-75
2021/05/10 06:04:25;;;;;;;;;;;;;;;12.56;58.13;102449.83;1856453;77;20166;-73
2021/05/10 06:06:53;;;;;;;;;;;;;;;12.63;58.17;102439.98;1856574;77;20852;-74
2021/05/10 06:09:22;;;;;;;;;;;;;;;12.70;58.11;102442.20;1856484;77;20280;-74
2021/05/10 06:11:53;;;;;;;;;;;;;;;12.76;57.81;102435.89;1856458;77;21179;-74
2021/05/10 06:14:20;;;;;;;;;;;;;;;12.83;56.71;102436.45;1856498;77;20205;-75
2021/05/10 06:16:47;;;;;;;;;;;;;;;12.87;56.52;102428.39;1870171;76;20483;-73
2021/05/10 06:19:15;;;;;;;;;;;;;;;12.95;56.09;102424.13;1872364;76;20145;-78
2021/05/10 06:21:43;;;;;;;;;;;;;;;13.04;55.23;102422.38;1872314;76;20231;-76
2021/05/10 06:24:11;;;;;;;;;;;;;;;13.13;52.60;102429.33;1872313;76;22211;-76
2021/05/10 06:26:40;;;;;;;;;;;;;;;13.32;47.85;102427.96;1872129;76;20133;-74
2021/05/10 06:29:08;;;;;;;;;;;;;;;13.46;46.97;102422.92;1872183;76;20130;-72
2021/05/10 06:31:36;;;;;;;;;;;;;;;13.55;46.72;102424.22;1872298;76;20110;-78
2021/05/10 06:34:05;;;;;;;;;;;;;;;13.63;45.89;102420.28;1872161;76;20503;-74
2021/05/10 06:36:33;;;;;;;;;;;;;;;13.66;45.74;102420.13;1872169;76;21122;-74
2021/05/10 06:39:01;;;;;;;;;;;;;;;13.67;46.39;102417.06;1872101;76;20197;-76
2021/05/10 06:41:29;;;;;;;;;;;;;;;13.70;46.87;102416.45;1872298;76;20189;-77
2021/05/10 06:43:57;;;;;;;;;;;;;;;13.76;46.29;102415.28;1872435;76;20225;-76
2021/05/10 06:46:26;;;;;;;;;;;;;;;13.84;46.02;102414.90;1872248;76;20211;-77
2021/05/10 06:48:55;;;;;;;;;;;;;;;13.88;46.37;102409.42;1872714;76;22448;-78
2021/05/10 06:51:22;;;;;;;;;;;;;;;13.97;46.59;102415.95;1872571;76;20386;-77
2021/05/10 06:53:50;;;;;;;;;;;;;;;14.05;45.81;102412.46;1872453;76;20464;-77
2021/05/10 06:56:18;;;;;;;;;;;;;;;14.12;45.58;102409.91;1872693;75;20929;-75
2021/05/10 06:58:45;;;;;;;;;;;;;;;14.20;46.06;102416.86;1872794;76;20487;-75
2021/05/10 07:01:13;;;;;;;;;;;;;;;14.29;46.58;102418.52;1872519;76;21840;-76
2021/05/10 07:03:41;;;;;;;;;;;;;;;14.38;45.68;102414.62;1872205;76;20271;-75
2021/05/10 07:06:08;;;;;;;;;;;;;;;14.45;46.05;102419.91;1872173;76;20106;-73
2021/05/10 07:08:36;;;;;;;;;;;;;;;14.50;44.35;102414.41;1872643;76;20291;-76
2021/05/10 07:11:04;;;;;;;;;;;;;;;14.56;44.91;102416.69;1872314;76;20130;-78
2021/05/10 07:13:32;;;;;;;;;;;;;;;14.65;44.14;102410.95;1872237;76;21792;-78
2021/05/10 07:16:00;;;;;;;;;;;;;;;14.71;43.99;102407.99;1865594;76;20205;-76
2021/05/10 07:18:27;;;;;;;;;;;;;;;14.70;43.58;102405.87;1856295;77;20226;-75
2021/05/10 07:20:56;;;;;;;;;;;;;;;14.76;44.83;102403.37;1856359;77;20229;-77
2021/05/10 07:23:24;;;;;;;;;;;;;;;14.90;44.16;102400.80;1856355;77;20697;-75
2021/05/10 07:25:54;;;;;;;;;;;;;;;15.00;42.51;102399.83;1856281;77;21146;-75
2021/05/10 07:28:22;;;;;;;;;;;;;;;15.01;43.07;102396.29;1856371;77;20505;-78
2021/05/10 07:30:50;;;;;;;;;;;;;;;15.06;43.33;102398.20;1856506;77;20129;-73
2021/05/10 07:33:19;;;;;;;;;;;;;;;15.16;41.51;102401.94;1856223;77;20848;-76
2021/05/10 07:35:47;;;;;;;;;;;;;;;15.20;41.61;102393.84;1856761;77;20197;-76
2021/05/10 07:38:14;;;;;;;;;;;;;;;15.28;42.44;102398.14;1856334;77;21188;-80
2021/05/10 07:40:42;;;;;;;;;;;;;;;15.41;40.84;102402.69;1856531;77;20507;-75
2021/05/10 07:43:09;;;;;;;;;;;;;;;15.47;40.92;102407.09;1856666;77;20142;-76
2021/05/10 07:45:38;;;;;;;;;;;;;;;15.59;40.48;102414.71;1856504;77;20201;-77
2021/05/10 07:48:06;;;;;;;;;;;;;;;15.68;40.48;102409.77;1856419;77;20221;-84
2021/05/10 07:50:36;;;;;;;;;;;;;;;15.75;39.72;102408.94;1856554;77;20914;-76
2021/05/10 07:53:04;;;;;;;;;;;;;;;15.76;39.91;102408.02;1856419;77;20135;-76
2021/05/10 07:55:33;;;;;;;;;;;;;;;15.77;39.71;102408.38;1856509;77;20127;-79
2021/05/10 07:58:02;;;;;;;;;;;;;;;15.82;37.96;102405.87;1856628;77;20871;-77
2021/05/10 08:00:32;;;;;;;;;;;;;;;15.81;37.51;102398.95;1856567;77;20150;-79
2021/05/10 08:03:15;;;;;;;;;;;;;;;15.80;37.14;102397.72;1856573;77;21644;-77
2021/05/10 08:05:46;;;;;;;;;;;;;;;15.81;38.39;102401.56;1856506;77;20225;-70
2021/05/10 08:08:16;;;;;;;;;;;;;;;15.95;39.36;102398.58;1856033;76;20205;-73
2021/05/10 08:10:45;;;;;;;;;;;;;;;16.10;39.68;102398.95;1856282;77;21057;-75
2021/05/10 08:13:13;;;;;;;;;;;;;;;16.22;38.80;102396.87;1856324;77;20165;-73
2021/05/10 08:15:43;;;;;;;;;;;;;;;16.29;39.38;102395.56;1858624;76;20138;-75
2021/05/10 08:18:12;;;;;;;;;;;;;;;16.39;39.55;102398.83;1870635;76;20216;-74
2021/05/10 08:20:43;;;;;;;;;;;;;;;16.49;38.13;102400.40;1872170;76;20237;-73
2021/05/10 08:23:11;;;;;;;;;;;;;;;16.61;38.15;102396.18;1872499;76;20181;-78
2021/05/10 08:25:39;;;;;;;;;;;;;;;16.66;36.08;102387.54;1872447;76;20491;-75
2021/05/10 08:28:07;;;;;;;;;;;;;;;16.72;37.36;102391.11;1872216;76;21190;-73
2021/05/10 08:30:35;;;;;;;;;;;;;;;16.86;34.08;102384.48;1872100;76;20141;-73
2021/05/10 08:33:02;;;;;;;;;;;;;;;16.93;33.99;102389.23;1872327;76;20142;-74
2021/05/10 08:35:32;;;;;;;;;;;;;;;16.97;34.99;102384.64;1871968;76;20805;-75
2021/05/10 08:38:01;;;;;;;;;;;;;;;16.96;35.53;102388.19;1872330;76;20300;-79
2021/05/10 08:40:30;;;;;;;;;;;;;;;16.96;35.60;102384.26;1872431;76;21186;-77
2021/05/10 08:42:59;;;;;;;;;;;;;;;17.02;35.30;102375.14;1872328;76;20491;-74
2021/05/10 08:45:27;;;;;;;;;;;;;;;17.09;35.56;102370.70;1872485;76;20145;-82
2021/05/10 08:48:00;;;;;;;;;;;;;;;17.19;35.04;102378.34;1872248;76;20917;-76
2021/05/10 08:50:29;;;;;;;;;;;;;;;17.13;35.78;102372.20;1872435;76;20221;-76
2021/05/10 08:52:57;;;;;;;;;;;;;;;17.21;36.95;102374.29;1872162;76;21230;-77
2021/05/10 08:55:25;;;;;;;;;;;;;;;17.36;36.47;102366.22;1872046;76;20201;-75
2021/05/10 08:57:53;;;;;;;;;;;;;;;17.43;35.37;102367.50;1872271;76;20130;-74
2021/05/10 09:00:22;;;;;;;;;;;;;;;17.49;34.78;102366.23;1872313;76;20249;-78
2021/05/10 09:02:53;;;;;;;;;;;;;;;17.51;35.54;102364.83;1872069;76;20501;-74
2021/05/10 09:05:21;;;;;;;;;;;;;;;17.59;34.86;102353.35;1868537;76;22096;-74
2021/05/10 09:08:04;;;;;;;;;;;;;;;17.66;34.83;102348.91;1872419;76;20599;-77
2021/05/10 09:10:32;;;;;;;;;;;;;;;17.75;34.94;102350.04;1869326;76;20126;-80
2021/05/10 09:12:59;;;;;;;;;;;;;;;17.87;34.50;102347.86;1872413;76;20142;-74
2021/05/10 09:15:28;;;;;;;;;;;;;;;17.90;34.03;102347.69;1872359;76;20500;-75
2021/05/10 09:18:06;;;;;;;;;;;;;;;17.96;34.87;102348.06;1857305;76;21181;-76
2021/05/10 09:20:39;;;;;;;;;;;;;;;18.10;33.99;102337.06;1856366;76;20149;-76
2021/05/10 09:23:12;;;;;;;;;;;;;;;18.17;34.34;102347.50;1856442;77;20237;-76
2021/05/10 09:25:42;;;;;;;;;;;;;;;18.31;34.61;102349.53;1856561;77;20940;-76
2021/05/10 09:28:17;;;;;;;;;;;;;;;18.42;33.23;102343.48;1856405;77;20123;-76
2021/05/10 09:30:50;;;;;;;;;;;;;;;18.52;33.45;102343.68;1856457;77;21202;-75
2021/05/10 09:33:26;;;;;;;;;;;;;;;18.64;33.68;102336.20;1856405;77;20223;-76
2021/05/10 09:36:01;;;;;;;;;;;;;;;18.77;34.47;102338.30;1855797;77;20280;-75
2021/05/10 09:38:29;;;;;;;;;;;;;;;18.85;32.99;102324.97;1856650;77;20146;-76
2021/05/10 09:41:00;;;;;;;;;;;;;;;18.96;32.33;102323.67;1856687;77;20161;-74
2021/05/10 09:43:38;;;;;;;;;;;;;;;19.08;30.32;102325.03;1856371;77;21192;-80
2021/05/10 09:46:12;;;;;;;;;;;;;;;19.09;31.27;102316.16;1856534;77;20491;-77
2021/05/10 09:48:44;;;;;;;;;;;;;;;19.14;31.60;102320.62;1851719;77;20225;-72
2021/05/10 09:51:15;;;;;;;;;;;;;;;19.22;31.08;102316.44;1856289;77;20174;-75
2021/05/10 09:53:46;;;;;;;;;;;;;;;19.87;30.19;102317.95;1856733;77;20225;-77
2021/05/10 09:59:02;;;;;;;;;;;;;;;22.25;26.07;102306.19;1856640;77;20146;-75
2021/05/10 10:01:40;;;;;;;;;;;;;;;22.71;25.07;102301.59;1856090;77;20114;-74
2021/05/10 10:04:07;;;;;;;;;;;;;;;23.12;25.57;102298.61;1856482;77;20218;-74
2021/05/10 10:06:37;;;;;;;;;;;;;;;24.16;24.62;102291.70;1856580;77;20115;-75
2021/05/10 10:09:05;;;;;;;;;;;;;;;25.40;22.58;102295.02;1856511;77;21180;-78
2021/05/10 10:11:32;;;;;;;;;;;;;;;26.37;22.57;102292.74;1856473;77;20531;-78
2021/05/10 10:14:02;;;;;;;;;;;;;;;27.24;20.99;102292.89;1856378;77;20284;-75
2021/05/10 10:16:31;;;;;;;;;;;;;;;27.71;21.30;102296.91;1856498;77;20779;-75
2021/05/10 10:19:01;;;;;;;;;;;;;;;28.30;19.57;102290.07;1856598;77;20150;-73
2021/05/10 10:21:29;;;;;;;;;;;;;;;29.08;18.67;102288.92;1856450;77;21324;-76
2021/05/10 10:24:00;;;;;;;;;;;;;;;29.98;18.45;102280.17;1856636;77;20527;-76
2021/05/10 10:26:30;;;;;;;;;;;;;;;30.41;17.43;102280.52;1852038;77;20217;-77
2021/05/10 10:28:57;;;;;;;;;;;;;;;30.09;16.74;102280.49;1856567;77;20221;-76
2021/05/10 10:31:30;;;;;;;;;;;;;;;29.30;17.15;102278.17;1856561;77;20293;-74
2021/05/10 10:34:08;;;;;;;;;;;;;;;29.21;17.65;102265.89;1851772;77;21180;-79
2021/05/10 10:36:48;;;;;;;;;;;;;;;29.08;16.64;102265.70;1856586;77;20563;-77
2021/05/10 10:39:24;;;;;;;;;;;;;;;28.22;17.19;102268.78;1856475;77;20250;-76
2021/05/10 10:42:02;;;;;;;;;;;;;;;27.69;18.22;102271.42;1856557;77;20197;-74
2021/05/10 10:44:42;;;;;;;;;;;;;;;27.40;18.05;102273.84;1856340;77;20464;-71
2021/05/10 10:47:11;;;;;;;;;;;;;;;26.88;19.03;102261.47;1856627;77;22251;-77
2021/05/10 10:49:40;;;;;;;;;;;;;;;26.54;18.75;102254.98;1856769;77;20488;-74
2021/05/10 10:52:20;;;;;;;;;;;;;;;26.02;19.15;102245.92;1856476;77;20142;-80
2021/05/10 10:55:08;;;;;;;;;;;;;;;25.48;20.52;102257.03;1856659;77;20827;-75
2021/05/10 10:57:36;;;;;;;;;;;;;;;25.08;20.54;102250.50;1856514;77;20284;-76
2021/05/10 11:00:05;;;;;;;;;;;;;;;25.07;20.96;102259.48;1856478;77;20879;-77
2021/05/10 11:02:41;;;;;;;;;;;;;;;24.82;20.67;102251.02;1856569;77;20212;-76
2021/05/10 11:05:19;;;;;;;;;;;;;;;24.72;21.02;102240.95;1856245;77;32488;-74
2021/05/10 11:07:58;;;;;;;;;;;;;;;24.50;21.80;102250.73;1856570;77;20154;-74
2021/05/10 11:10:47;;;;;;;;;;;;;;;24.33;21.34;102252.41;1856927;77;20209;-78
2021/05/10 11:16:11;;;;;;;;;;;;;;;23.30;22.70;102241.73;1922677;73;20186;-73
2021/05/10 11:18:48;;;;;;;;;;;;;;;23.22;22.84;102249.58;1892125;76;20124;-78
2021/05/10 11:21:25;;;;;;;;;;;;;;;23.27;22.31;102241.53;1892001;76;21481;-73
2021/05/10 11:23:57;;;;;;;;;;;;;;;23.47;22.55;102229.08;1891951;76;20124;-74
2021/05/10 11:26:46;;;;;;;;;;;;;;;23.67;23.62;102228.00;1892137;76;20139;-75
2021/05/10 11:29:30;;;;;;;;;;;;;;;23.87;23.66;102224.23;1892041;76;20556;-76
2021/05/10 11:32:01;;;;;;;;;;;;;;;23.93;23.07;102218.84;1892052;75;20151;-76
2021/05/10 11:34:32;;;;;;;;;;;;;;;23.74;22.38;102214.48;1887602;76;21128;-77
2021/05/10 11:37:00;;;;;;;;;;;;;;;23.46;22.21;102217.64;1892144;76;20128;-74
2021/05/10 11:39:30;;;;;;;;;;;;;;;23.05;22.75;102214.92;1892205;76;20246;-77
2021/05/10 11:42:07;;;;;;;;;;;;;;;22.67;23.25;102201.80;1892189;76;20474;-73
2021/05/10 11:44:40;;;;;;;;;;;;;;;22.29;24.72;102195.19;1892101;76;20124;-77
2021/05/10 11:47:12;;;;;;;;;;;;;;;21.95;24.59;102198.23;1891313;76;21174;-79
2021/05/10 11:49:43;;;;;;;;;;;;;;;21.67;26.44;102192.39;1891956;76;20164;-77
2021/05/10 11:52:21;;;;;;;;;;;;;;;21.76;25.59;102188.92;1891902;76;20206;-75
2021/05/10 11:54:52;;;;;;;;;;;;;;;22.06;25.60;102182.25;1892011;76;20219;-74
2021/05/10 11:57:31;;;;;;;;;;;;;;;22.48;23.95;102185.44;1892255;76;20235;-80
2021/05/10 12:00:10;;;;;;;;;;;;;;;22.33;24.50;102170.98;1892034;76;21179;-72
2021/05/10 12:02:33;;;;;;;;;;;;;;;22.44;24.40;102175.27;1890859;76;20132;-75
2021/05/10 12:05:07;;;;;;;;;;;;;;;22.65;24.63;102168.84;1892138;75;20199;-73
2021/05/10 12:07:35;;;;;;;;;;;;;;;22.63;24.66;102168.13;1892123;75;20143;-77
2021/05/10 12:10:10;;;;;;;;;;;;;;;22.56;24.17;102163.05;1892104;75;20136;-78
2021/05/10 12:12:47;;;;;;;;;;;;;;;22.55;24.38;102164.54;1891953;76;21014;-74
2021/05/10 12:15:18;;;;;;;;;;;;;;;22.77;24.99;102160.27;1898651;74;20143;-79
2021/05/10 12:17:51;;;;;;;;;;;;;;;22.98;24.76;102159.55;1905356;75;20124;-71
2021/05/10 12:20:25;;;;;;;;;;;;;;;23.09;23.84;102166.00;1905159;75;20581;-79
2021/05/10 12:22:58;;;;;;;;;;;;;;;23.20;22.75;102150.39;1905617;75;20231;-78
2021/05/10 12:25:31;;;;;;;;;;;;;;;23.17;22.90;102152.84;1905317;75;21174;-74
2021/05/10 12:28:08;;;;;;;;;;;;;;;23.19;23.82;102144.77;1904775;75;20119;-73
2021/05/10 12:30:55;;;;;;;;;;;;;;;23.38;24.53;102145.15;1904764;75;20195;-74
2021/05/10 12:33:28;;;;;;;;;;;;;;;23.16;24.32;102148.55;1904833;75;20213;-73
2021/05/10 12:36:04;;;;;;;;;;;;;;;23.04;24.64;102131.65;1904963;75;20143;-75
2021/05/10 12:38:40;;;;;;;;;;;;;;;22.97;24.16;102130.11;1904430;75;21398;-75
2021/05/10 12:41:09;;;;;;;;;;;;;;;22.56;23.91;102131.30;1904625;75;20203;-75
2021/05/10 12:43:45;;;;;;;;;;;;;;;22.32;24.52;102129.63;1904742;75;20188;-76
2021/05/10 12:46:16;;;;;;;;;;;;;;;22.28;24.37;102130.04;1904717;75;20518;-81
2021/05/10 12:48:46;;;;;;;;;;;;;;;22.26;24.06;102128.87;1905096;75;20132;-76
2021/05/10 12:51:24;;;;;;;;;;;;;;;22.14;24.14;102126.04;1904658;75;21350;-73
2021/05/10 12:54:00;;;;;;;;;;;;;;;21.91;24.71;102124.17;1904699;75;20215;-75
2021/05/10 12:56:29;;;;;;;;;;;;;;;21.83;25.92;102120.02;1904842;75;20214;-74
2021/05/10 12:59:01;;;;;;;;;;;;;;;21.80;25.36;102115.01;1904747;75;20179;-74
2021/05/10 13:01:29;;;;;;;;;;;;;;;21.89;24.98;102111.56;1904793;75;20214;-77
2021/05/10 13:04:10;;;;;;;;;;;;;;;22.09;24.98;102107.94;1904617;75;21171;-75
2021/05/10 13:06:37;;;;;;;;;;;;;;;22.26;24.83;102120.10;1903972;75;20135;-74
2021/05/10 13:09:24;;;;;;;;;;;;;;;22.28;24.09;102108.40;1904697;75;20182;-72